Time;durP1;ratioP1;P1;durP2;ratioP2;P2;SDS_P1;SDS_P2;PMS_P1;PMS_P2;Temp;Humidity;BMP_temperature;BMP_pressure;BME280_temperature;BME280_humidity;BME280_pressure;Samples;Min_cycle;Max_cycle;Signal;HPM_P1;HPM_P2
2023/08/09 00:00:34;;;;;;;0.00;0.00;;;9.70;1.00;;;;;;5070097;28;20049;-85
2023/08/09 00:03:00;;;;;;;2.72;0.85;;;9.70;1.00;;;;;;5070539;28;20039;-86
2023/08/09 00:05:26;;;;;;;0.50;0.13;;;9.70;1.00;;;;;;5072468;28;20048;-85
2023/08/09 00:07:52;;;;;;;0.00;0.00;;;9.70;25.90;;;;;;5069356;28;20124;-85
2023/08/09 00:10:17;;;;;;;0.00;0.00;;;9.80;36.40;;;;;;5068098;28;20045;-85
2023/08/09 00:12:43;;;;;;;0.00;0.00;;;9.80;18.90;;;;;;5055336;28;20629;-85
2023/08/09 00:15:10;;;;;;;0.00;0.00;;;9.80;18.70;;;;;;5053060;28;20053;-86
2023/08/09 00:17:36;;;;;;;0.10;0.10;;;9.70;11.90;;;;;;5053201;28;20483;-86
2023/08/09 00:20:02;;;;;;;0.00;0.00;;;9.70;17.70;;;;;;5052316;28;20468;-86
2023/08/09 00:22:28;;;;;;;5.97;1.30;;;9.70;11.90;;;;;;5034314;28;20055;-85
2023/08/09 00:24:53;;;;;;;0.00;0.00;;;9.60;11.90;;;;;;5050297;28;20120;-86
2023/08/09 00:27:19;;;;;;;0.00;0.00;;;9.70;9.80;;;;;;5051638;28;20045;-85
2023/08/09 00:29:45;;;;;;;0.00;0.00;;;10.20;31.40;;;;;;5048746;28;20048;-85
2023/08/09 00:32:10;;;;;;;0.00;0.00;;;9.90;36.00;;;;;;5049787;28;20384;-86
2023/08/09 00:34:36;;;;;;;0.00;0.00;;;10.10;62.80;;;;;;5049380;28;20072;-85
2023/08/09 00:37:02;;;;;;;0.32;0.30;;;9.50;81.90;;;;;;5049700;28;20080;-85
2023/08/09 00:39:29;;;;;;;0.60;0.60;;;9.40;86.10;;;;;;5048380;28;20057;-85
2023/08/09 00:41:55;;;;;;;0.00;0.00;;;9.40;99.90;;;;;;5049823;28;20075;-85
2023/08/09 00:44:22;;;;;;;0.00;0.00;;;11.00;99.90;;;;;;5048755;28;20048;-85
2023/08/09 00:46:48;;;;;;;4.97;0.30;;;10.90;99.90;;;;;;5049867;28;20107;-85
2023/08/09 00:49:14;;;;;;;0.08;0.05;;;9.40;99.90;;;;;;5048740;28;20059;-86
2023/08/09 00:51:40;;;;;;;0.00;0.00;;;9.70;99.90;;;;;;5048078;28;20491;-85
2023/08/09 00:54:05;;;;;;;0.10;0.10;;;9.30;99.90;;;;;;5049705;28;20048;-85
2023/08/09 00:56:31;;;;;;;0.00;0.00;;;9.30;99.90;;;;;;5050090;28;20053;-86
2023/08/09 00:58:57;;;;;;;0.00;0.00;;;9.20;99.90;;;;;;5050561;28;20064;-86
2023/08/09 01:01:22;;;;;;;0.10;0.10;;;9.30;99.90;;;;;;5049058;28;20059;-85
2023/08/09 01:03:49;;;;;;;3.72;0.52;;;9.20;99.90;;;;;;5031837;28;20076;-86
2023/08/09 01:06:30;;;;;;;0.10;0.00;;;10.60;99.90;;;;;;5048750;28;20045;-85
2023/08/09 01:09:27;;;;;;;0.20;0.20;;;9.20;99.90;;;;;;5049777;28;20045;-85
2023/08/09 01:11:57;;;;;;;0.00;0.00;;;9.20;99.90;;;;;;5050766;28;20063;-85
2023/08/09 01:14:25;;;;;;;0.17;0.17;;;9.10;99.90;;;;;;5049430;28;20037;-85
2023/08/09 01:16:53;;;;;;;0.00;0.00;;;9.10;99.90;;;;;;5050586;28;20059;-85
2023/08/09 01:19:39;;;;;;;0.00;0.00;;;9.10;99.90;;;;;;5048797;28;20067;-85
2023/08/09 01:22:16;;;;;;;0.00;0.00;;;9.20;99.90;;;;;;5050222;28;20124;-85
2023/08/09 01:24:44;;;;;;;0.13;0.13;;;9.10;99.90;;;;;;5048239;28;20075;-85
2023/08/09 01:27:10;;;;;;;0.00;0.00;;;10.20;99.90;;;;;;5031354;28;20074;-85
2023/08/09 01:29:36;;;;;;;0.28;0.25;;;9.10;99.90;;;;;;5049404;28;20636;-86
2023/08/09 01:32:02;;;;;;;0.00;0.00;;;9.20;99.90;;;;;;5047944;28;20094;-85
2023/08/09 01:34:28;;;;;;;0.00;0.00;;;9.20;99.90;;;;;;5051760;28;20435;-85
2023/08/09 01:36:57;;;;;;;0.55;0.38;;;9.10;99.90;;;;;;5049644;28;20057;-86
2023/08/09 01:39:26;;;;;;;0.00;0.00;;;9.10;99.90;;;;;;5050496;28;20506;-85
2023/08/09 01:41:52;;;;;;;0.32;0.20;;;9.10;99.90;;;;;;5053979;28;20060;-86
2023/08/09 01:44:19;;;;;;;0.40;0.40;;;9.10;99.90;;;;;;5054369;28;20639;-85
2023/08/09 01:46:45;;;;;;;0.00;0.00;;;9.20;99.90;;;;;;5053819;28;20767;-85
2023/08/09 01:49:13;;;;;;;0.03;0.03;;;9.10;99.90;;;;;;5052880;28;20053;-85
2023/08/09 01:51:39;;;;;;;0.15;0.15;;;9.10;99.90;;;;;;5053834;28;20195;-85
2023/08/09 01:54:07;;;;;;;0.10;0.10;;;9.80;99.90;;;;;;5054301;28;20045;-85
2023/08/09 01:56:32;;;;;;;0.00;0.00;;;9.00;99.90;;;;;;5035736;28;20037;-85
2023/08/09 01:58:59;;;;;;;0.55;0.55;;;9.00;99.90;;;;;;5052474;28;20120;-85
2023/08/09 02:01:25;;;;;;;0.00;0.00;;;9.00;99.90;;;;;;5054386;28;20652;-85
2023/08/09 02:03:51;;;;;;;0.22;0.20;;;9.00;99.90;;;;;;5036422;28;20140;-85
2023/08/09 02:06:17;;;;;;;0.10;0.10;;;9.00;99.90;;;;;;5053709;28;20127;-85
2023/08/09 02:08:43;;;;;;;0.00;0.00;;;8.90;99.90;;;;;;5036621;28;20080;-85
2023/08/09 02:11:09;;;;;;;0.30;0.30;;;8.90;99.90;;;;;;5053796;28;20053;-85
2023/08/09 02:13:35;;;;;;;0.00;0.00;;;8.80;99.90;;;;;;5035958;28;20384;-85
2023/08/09 02:16:04;;;;;;;1.95;0.65;;;8.80;99.90;;;;;;5054085;28;20064;-85
2023/08/09 02:18:29;;;;;;;0.00;0.00;;;9.60;99.90;;;;;;5053897;28;20053;-85
2023/08/09 02:20:55;;;;;;;0.00;0.00;;;8.80;99.90;;;;;;5037408;28;20106;-85
2023/08/09 02:23:21;;;;;;;0.00;0.00;;;8.80;99.90;;;;;;5054568;28;20124;-85
2023/08/09 02:25:47;;;;;;;0.47;0.13;;;8.80;99.90;;;;;;5054419;28;20045;-85
2023/08/09 02:28:12;;;;;;;0.00;0.00;;;9.50;99.90;;;;;;5054148;28;20467;-85
2023/08/09 02:30:38;;;;;;;0.00;0.00;;;8.80;99.90;;;;;;5052577;28;20053;-86
2023/08/09 02:33:04;;;;;;;0.00;0.00;;;8.80;99.90;;;;;;5054014;28;20045;-86
2023/08/09 02:35:46;;;;;;;0.00;0.00;;;8.80;99.90;;;;;;5052017;28;20065;-86
2023/08/09 02:38:11;;;;;;;0.00;0.00;;;8.80;99.90;;;;;;5035177;28;20511;-86
2023/08/09 02:40:37;;;;;;;0.00;0.00;;;9.60;99.90;;;;;;5052942;28;20049;-85
2023/08/09 02:43:03;;;;;;;0.00;0.00;;;8.70;99.90;;;;;;5053415;28;20060;-85
2023/08/09 02:45:29;;;;;;;0.00;0.00;;;9.20;99.90;;;;;;5053634;28;20043;-85
2023/08/09 02:47:54;;;;;;;0.10;0.10;;;8.70;99.90;;;;;;5051943;28;20037;-85
2023/08/09 02:50:20;;;;;;;0.13;0.13;;;8.70;99.90;;;;;;5053448;28;20051;-86
2023/08/09 02:52:46;;;;;;;0.05;0.05;;;9.20;99.90;;;;;;5036080;28;20061;-85
2023/08/09 02:55:13;;;;;;;0.00;0.00;;;8.60;99.90;;;;;;5052778;28;20056;-85
2023/08/09 02:57:38;;;;;;;0.47;0.08;;;8.60;99.90;;;;;;5052523;28;20068;-85
2023/08/09 03:00:06;;;;;;;0.10;0.10;;;8.50;99.90;;;;;;5050637;28;20041;-85
2023/08/09 03:02:32;;;;;;;0.10;0.10;;;8.50;99.90;;;;;;5051279;28;20049;-84
2023/08/09 03:05:00;;;;;;;0.28;0.20;;;8.60;99.90;;;;;;5050076;28;20053;-85
2023/08/09 03:07:25;;;;;;;0.10;0.05;;;9.30;99.90;;;;;;5052407;28;20068;-86
2023/08/09 03:09:51;;;;;;;0.45;0.10;;;9.00;99.90;;;;;;5034441;28;20048;-85
2023/08/09 03:12:17;;;;;;;0.00;0.00;;;8.60;99.90;;;;;;5051369;28;20049;-85
2023/08/09 03:14:43;;;;;;;0.52;0.45;;;8.50;99.90;;;;;;5050412;28;20368;-86
2023/08/09 03:17:08;;;;;;;0.03;0.03;;;8.40;99.90;;;;;;5051715;28;20060;-86
2023/08/09 03:19:34;;;;;;;0.10;0.10;;;8.70;99.90;;;;;;5051565;28;20616;-85
2023/08/09 03:22:00;;;;;;;0.00;0.00;;;8.30;99.90;;;;;;5033868;28;20048;-85
2023/08/09 03:24:25;;;;;;;0.00;0.00;;;8.40;99.90;;;;;;5051352;28;20066;-85
2023/08/09 03:26:51;;;;;;;0.00;0.00;;;8.40;99.90;;;;;;5050450;28;20052;-85
2023/08/09 03:29:16;;;;;;;3.50;0.57;;;8.50;99.90;;;;;;5052393;28;20088;-85
2023/08/09 03:31:42;;;;;;;0.10;0.10;;;8.90;99.90;;;;;;5050860;28;20052;-84
2023/08/09 03:34:08;;;;;;;0.00;0.00;;;8.40;99.90;;;;;;5052030;28;20507;-85
2023/08/09 03:36:34;;;;;;;0.00;0.00;;;8.40;99.90;;;;;;5052354;28;20080;-84
2023/08/09 03:39:00;;;;;;;0.00;0.00;;;8.40;99.90;;;;;;5034396;28;20060;-86
2023/08/09 03:41:26;;;;;;;0.00;0.00;;;8.40;99.90;;;;;;5052215;28;20049;-85
2023/08/09 03:43:52;;;;;;;0.10;0.10;;;8.60;99.90;;;;;;5050663;28;20112;-85
2023/08/09 03:46:17;;;;;;;0.45;0.35;;;9.50;99.90;;;;;;5051683;28;20127;-85
2023/08/09 03:48:43;;;;;;;4.65;0.30;;;8.30;99.90;;;;;;5052262;28;20048;-84
2023/08/09 03:51:09;;;;;;;0.08;0.08;;;8.30;99.90;;;;;;5052199;28;20040;-85
2023/08/09 03:53:35;;;;;;;0.43;0.20;;;8.90;99.90;;;;;;5052567;28;20061;-85
2023/08/09 03:56:01;;;;;;;0.00;0.00;;;8.30;99.90;;;;;;5052357;28;20045;-84
2023/08/09 03:58:27;;;;;;;0.25;0.25;;;8.40;99.90;;;;;;5051837;28;20106;-85
2023/08/09 04:00:53;;;;;;;0.00;0.00;;;8.40;99.90;;;;;;5052585;28;20142;-85
2023/08/09 04:03:18;;;;;;;0.00;0.00;;;8.40;99.90;;;;;;5051543;28;20418;-85
2023/08/09 04:05:44;;;;;;;1.35;0.57;;;8.40;99.90;;;;;;5051626;28;20097;-84
2023/08/09 04:08:10;;;;;;;0.00;0.00;;;8.30;99.90;;;;;;5053132;28;20045;-86
2023/08/09 04:10:35;;;;;;;0.10;0.10;;;9.30;99.90;;;;;;5054094;28;20041;-85
2023/08/09 04:13:01;;;;;;;0.00;0.00;;;9.20;99.90;;;;;;5055056;28;20136;-85
2023/08/09 04:15:27;;;;;;;0.30;0.30;;;8.40;99.90;;;;;;5052731;28;20154;-86
2023/08/09 04:17:53;;;;;;;0.00;0.00;;;8.50;99.90;;;;;;5051421;28;20044;-85
2023/08/09 04:20:19;;;;;;;0.00;0.00;;;8.60;99.90;;;;;;5050960;28;20049;-86
2023/08/09 04:22:45;;;;;;;0.00;0.00;;;8.50;99.90;;;;;;5050679;28;20052;-85
2023/08/09 04:25:11;;;;;;;0.00;0.00;;;8.50;99.90;;;;;;5050059;28;20045;-85
2023/08/09 04:27:39;;;;;;;1.45;0.55;;;8.60;99.90;;;;;;5051724;28;20597;-85
2023/08/09 04:30:09;;;;;;;0.00;0.00;;;8.60;99.90;;;;;;5051375;28;20081;-85
2023/08/09 04:32:35;;;;;;;1.55;0.10;;;8.60;99.90;;;;;;5032763;28;20053;-85
2023/08/09 04:35:01;;;;;;;0.15;0.10;;;8.60;99.90;;;;;;5047508;28;20090;-85
2023/08/09 04:37:27;;;;;;;0.10;0.00;;;9.80;99.90;;;;;;5051348;28;20057;-85
2023/08/09 04:39:54;;;;;;;0.03;0.03;;;8.80;99.90;;;;;;5052738;28;20056;-85
2023/08/09 04:42:19;;;;;;;0.00;0.00;;;8.70;99.90;;;;;;5052722;28;20045;-86
2023/08/09 04:44:45;;;;;;;0.05;0.05;;;8.70;99.90;;;;;;5051936;28;20084;-85
2023/08/09 04:47:12;;;;;;;0.03;0.03;;;8.70;99.90;;;;;;5052098;28;20080;-86
2023/08/09 04:49:37;;;;;;;0.00;0.00;;;8.80;99.90;;;;;;5051427;28;20151;-85
2023/08/09 04:52:04;;;;;;;0.08;0.08;;;8.90;99.90;;;;;;5052788;28;20077;-85
2023/08/09 04:54:29;;;;;;;1.75;0.52;;;8.90;99.90;;;;;;5052948;28;20426;-85
2023/08/09 04:56:55;;;;;;;0.00;0.00;;;8.90;99.90;;;;;;5051217;28;20077;-85
2023/08/09 04:59:21;;;;;;;2.65;1.15;;;8.90;99.90;;;;;;5050694;28;20037;-85
2023/08/09 05:01:47;;;;;;;0.00;0.00;;;9.00;99.90;;;;;;5052356;28;20377;-85
2023/08/09 05:04:12;;;;;;;0.00;0.00;;;9.50;99.90;;;;;;5050578;28;20203;-85
2023/08/09 05:06:40;;;;;;;0.00;0.00;;;9.20;99.90;;;;;;5052952;28;20407;-85
2023/08/09 05:09:05;;;;;;;0.00;0.00;;;9.20;99.90;;;;;;5054629;28;20061;-85
2023/08/09 05:11:31;;;;;;;0.00;0.00;;;9.30;99.90;;;;;;5056002;28;20407;-85
2023/08/09 05:13:57;;;;;;;0.00;0.00;;;9.40;99.90;;;;;;5056243;28;20080;-85
2023/08/09 05:16:25;;;;;;;0.10;0.10;;;11.00;99.90;;;;;;5056941;28;20061;-85
2023/08/09 05:18:52;;;;;;;0.43;0.35;;;9.60;99.90;;;;;;5038707;28;20498;-85
2023/08/09 05:21:18;;;;;;;0.20;0.20;;;9.70;99.90;;;;;;5039510;28;20179;-86
2023/08/09 05:23:43;;;;;;;0.00;0.00;;;9.70;99.90;;;;;;5039396;28;20048;-85
2023/08/09 05:26:09;;;;;;;0.00;0.00;;;9.90;99.90;;;;;;5056274;28;20059;-86
2023/08/09 05:28:35;;;;;;;0.15;0.10;;;10.00;99.90;;;;;;5039788;28;20045;-85
2023/08/09 05:31:00;;;;;;;0.45;0.17;;;10.10;99.90;;;;;;5038753;28;20051;-87
2023/08/09 05:33:26;;;;;;;0.28;0.28;;;10.20;99.90;;;;;;5053228;28;20519;-86
2023/08/09 05:35:52;;;;;;;0.00;0.00;;;10.20;99.90;;;;;;5053917;28;20088;-85
2023/08/09 05:38:17;;;;;;;0.00;0.00;;;11.20;99.90;;;;;;5052337;28;20059;-85
2023/08/09 05:40:43;;;;;;;0.00;0.00;;;10.40;99.90;;;;;;5051533;28;20403;-86
2023/08/09 05:43:09;;;;;;;0.32;0.10;;;10.50;99.90;;;;;;5034895;28;20472;-86
2023/08/09 05:45:34;;;;;;;0.55;0.22;;;10.60;99.90;;;;;;5035398;28;20398;-86
2023/08/09 05:48:00;;;;;;;0.00;0.00;;;10.70;99.90;;;;;;5052278;28;20052;-85
2023/08/09 05:50:26;;;;;;;0.30;0.30;;;10.80;99.90;;;;;;5052099;28;20544;-85
2023/08/09 05:52:51;;;;;;;0.00;0.00;;;11.50;99.90;;;;;;5051808;28;20040;-86
2023/08/09 05:55:17;;;;;;;0.00;0.00;;;11.10;99.90;;;;;;5053063;28;20124;-85
2023/08/09 05:57:43;;;;;;;0.17;0.17;;;11.20;99.90;;;;;;5052619;28;20045;-85
2023/08/09 06:00:15;;;;;;;0.00;0.00;;;11.20;99.90;;;;;;5052644;28;20068;-86
2023/08/09 06:02:43;;;;;;;1.35;0.98;;;11.30;99.90;;;;;;5050904;28;20056;-86
2023/08/09 06:05:14;;;;;;;0.10;0.10;;;11.40;99.90;;;;;;5052456;28;20079;-86
2023/08/09 06:07:40;;;;;;;0.22;0.13;;;11.50;99.90;;;;;;5051371;28;20051;-86
2023/08/09 06:10:06;;;;;;;0.30;0.30;;;11.70;99.90;;;;;;5051299;28;20100;-86
2023/08/09 06:12:31;;;;;;;0.00;0.00;;;12.10;99.90;;;;;;5053328;28;20824;-86
2023/08/09 06:14:57;;;;;;;0.15;0.15;;;12.80;99.90;;;;;;5050808;28;20060;-86
2023/08/09 06:17:23;;;;;;;0.00;0.00;;;13.70;99.90;;;;;;5051191;28;20632;-86
2023/08/09 06:19:48;;;;;;;0.20;0.20;;;14.60;99.90;;;;;;5052200;28;20537;-86
2023/08/09 06:22:14;;;;;;;1.15;0.75;;;15.50;99.90;;;;;;5050104;28;20478;-86
2023/08/09 06:24:39;;;;;;;0.47;0.47;;;17.10;99.90;;;;;;5051131;28;20045;-85
2023/08/09 06:27:05;;;;;;;0.00;0.00;;;16.90;1.00;;;;;;5051271;28;20048;-86
2023/08/09 06:29:32;;;;;;;0.17;0.13;;;17.70;74.90;;;;;;5034942;28;20049;-86
2023/08/09 06:31:58;;;;;;;0.00;0.00;;;18.20;99.90;;;;;;5034145;28;20049;-86
2023/08/09 06:34:24;;;;;;;1.45;0.47;;;18.80;99.90;;;;;;5053722;28;20041;-86
2023/08/09 06:36:49;;;;;;;0.15;0.13;;;19.40;1.00;;;;;;5054040;28;20048;-86
2023/08/09 06:39:15;;;;;;;0.35;0.32;;;20.10;1.00;;;;;;5050586;28;20598;-87
2023/08/09 06:41:40;;;;;;;1.90;0.43;;;20.40;99.90;;;;;;5047161;28;20095;-86
2023/08/09 06:44:06;;;;;;;0.70;0.47;;;20.90;99.90;;;;;;5048023;28;20565;-86
2023/08/09 06:46:32;;;;;;;0.00;0.00;;;21.10;99.90;;;;;;5046046;28;20037;-86
2023/08/09 06:48:58;;;;;;;0.10;0.10;;;21.60;99.90;;;;;;5047170;28;20049;-86
2023/08/09 06:51:23;;;;;;;0.00;0.00;;;22.00;99.90;;;;;;5045818;28;20403;-86
2023/08/09 06:53:49;;;;;;;0.00;0.00;;;22.30;99.90;;;;;;5047241;28;20052;-87
2023/08/09 06:56:15;;;;;;;0.00;0.00;;;22.70;99.90;;;;;;5045399;28;20045;-86
2023/08/09 06:58:41;;;;;;;0.90;0.60;;;23.00;99.90;;;;;;5043958;28;20123;-85
2023/08/09 07:01:09;;;;;;;0.00;0.00;;;23.00;93.60;;;;;;5044111;28;20147;-85
2023/08/09 07:03:36;;;;;;;0.20;0.15;;;22.90;51.20;;;;;;5043692;28;20052;-85
2023/08/09 07:06:02;;;;;;;1.35;1.00;;;22.90;1.00;;;;;;5041833;28;20519;-86
2023/08/09 07:08:28;;;;;;;0.90;0.47;;;23.20;36.10;;;;;;5044412;28;20056;-85
2023/08/09 07:10:55;;;;;;;0.00;0.00;;;23.60;34.10;;;;;;5043235;28;20045;-85
2023/08/09 07:13:21;;;;;;;0.00;0.00;;;23.60;7.80;;;;;;5042551;28;20095;-86
2023/08/09 07:15:47;;;;;;;0.00;0.00;;;23.60;1.00;;;;;;5043558;28;20434;-86
2023/08/09 07:18:12;;;;;;;0.30;0.30;;;23.80;1.00;;;;;;5043660;28;20044;-86
2023/08/09 07:20:38;;;;;;;0.00;0.00;;;23.90;1.00;;;;;;5043931;28;20520;-86
2023/08/09 07:23:04;;;;;;;0.00;0.00;;;24.20;1.00;;;;;;5043951;28;20036;-87
2023/08/09 07:25:29;;;;;;;0.08;0.08;;;24.60;1.00;;;;;;5043982;28;20051;-87
2023/08/09 07:27:55;;;;;;;0.17;0.10;;;24.90;1.00;;;;;;5044836;28;20354;-87
2023/08/09 07:30:21;;;;;;;0.43;0.38;;;25.30;1.00;;;;;;5044440;28;20119;-87
2023/08/09 07:32:47;;;;;;;0.43;0.22;;;25.30;1.00;;;;;;5042949;28;20095;-87
2023/08/09 07:35:14;;;;;;;1.25;0.35;;;25.30;1.00;;;;;;5043912;28;20061;-87
2023/08/09 07:37:41;;;;;;;0.00;0.00;;;25.30;1.00;;;;;;5043653;28;20448;-87
2023/08/09 07:40:08;;;;;;;0.00;0.00;;;25.30;1.00;;;;;;5042166;28;20041;-87
2023/08/09 07:42:37;;;;;;;0.00;0.00;;;25.40;99.90;;;;;;5043110;28;20160;-87
2023/08/09 07:45:03;;;;;;;0.00;0.00;;;25.30;99.90;;;;;;5043256;28;20131;-87
2023/08/09 07:47:29;;;;;;;0.00;0.00;;;24.90;99.90;;;;;;5042213;28;20052;-87
2023/08/09 07:49:55;;;;;;;0.00;0.00;;;25.20;99.90;;;;;;5043577;28;20041;-87
2023/08/09 07:52:20;;;;;;;0.00;0.00;;;25.40;99.90;;;;;;5043294;28;20048;-87
2023/08/09 07:54:47;;;;;;;0.20;0.17;;;25.10;99.90;;;;;;5043423;28;20123;-87
2023/08/09 07:57:13;;;;;;;0.00;0.00;;;25.10;99.90;;;;;;5041870;28;20092;-87
2023/08/09 07:59:39;;;;;;;0.00;0.00;;;25.60;99.90;;;;;;5043868;28;20491;-86
2023/08/09 08:02:05;;;;;;;1.20;0.30;;;25.10;99.90;;;;;;5042926;28;20578;-86
2023/08/09 08:04:31;;;;;;;0.00;0.00;;;24.90;99.90;;;;;;5042879;28;20454;-86
2023/08/09 08:06:56;;;;;;;0.00;0.00;;;24.90;99.90;;;;;;5042223;28;20045;-87
2023/08/09 08:09:24;;;;;;;0.05;0.05;;;24.60;99.90;;;;;;5042035;28;20084;-86
2023/08/09 08:11:50;;;;;;;1.95;0.68;;;24.60;99.90;;;;;;5039298;28;20060;-86
2023/08/09 08:14:16;;;;;;;0.00;0.00;;;25.20;99.90;;;;;;5040660;28;20049;-86
2023/08/09 08:16:42;;;;;;;0.00;0.00;;;25.00;99.90;;;;;;5040287;28;20067;-87
2023/08/09 08:19:09;;;;;;;0.10;0.00;;;24.60;99.90;;;;;;5041708;28;20060;-86
2023/08/09 08:21:34;;;;;;;0.00;0.00;;;24.40;99.90;;;;;;5041649;28;20128;-86
2023/08/09 08:24:00;;;;;;;0.00;0.00;;;24.70;99.90;;;;;;5043449;28;20132;-86
2023/08/09 08:26:26;;;;;;;0.38;0.22;;;25.00;99.90;;;;;;5041561;28;20045;-86
2023/08/09 08:28:52;;;;;;;0.00;0.00;;;25.60;99.90;;;;;;5043297;28;20506;-85
2023/08/09 08:31:22;;;;;;;0.00;0.00;;;25.30;90.50;;;;;;5042771;28;20131;-85
2023/08/09 08:33:49;;;;;;;13.63;0.55;;;25.60;68.70;;;;;;5042293;28;20045;-86
2023/08/09 08:36:16;;;;;;;0.00;0.00;;;25.70;89.60;;;;;;5040975;28;20051;-86
2023/08/09 08:38:42;;;;;;;0.00;0.00;;;24.40;28.20;;;;;;5040773;28;20056;-87
2023/08/09 08:41:08;;;;;;;0.05;0.05;;;23.50;20.10;;;;;;5040639;28;20048;-86
2023/08/09 08:43:34;;;;;;;0.00;0.00;;;23.10;12.60;;;;;;5040664;28;20333;-86
2023/08/09 08:46:02;;;;;;;1.85;0.55;;;22.50;27.40;;;;;;5042790;28;20308;-86
2023/08/09 08:48:28;;;;;;;0.00;0.00;;;22.70;45.70;;;;;;5041640;28;20052;-86
2023/08/09 08:50:57;;;;;;;0.22;0.17;;;23.80;95.40;;;;;;5041423;28;20087;-86
2023/08/09 08:53:24;;;;;;;0.00;0.00;;;23.70;72.20;;;;;;5040699;28;20041;-86
2023/08/09 08:55:51;;;;;;;0.00;0.00;;;22.70;6.90;;;;;;5040555;28;20479;-86
2023/08/09 08:58:16;;;;;;;0.05;0.05;;;23.10;22.70;;;;;;5039029;28;20087;-85
2023/08/09 09:00:42;;;;;;;0.00;0.00;;;23.60;1.00;;;;;;5040521;28;20142;-86
2023/08/09 09:03:08;;;;;;;0.10;0.10;;;23.70;1.00;;;;;;5042119;28;20151;-86
2023/08/09 09:05:34;;;;;;;0.25;0.25;;;23.60;1.00;;;;;;5039990;28;20399;-87
2023/08/09 09:08:00;;;;;;;0.00;0.00;;;23.20;1.00;;;;;;5040636;28;20049;-87
2023/08/09 09:10:26;;;;;;;0.00;0.00;;;22.60;1.00;;;;;;5039380;28;20166;-86
2023/08/09 09:12:58;;;;;;;0.05;0.05;;;22.50;1.00;;;;;;5040717;28;20525;-86
2023/08/09 09:15:28;;;;;;;0.00;0.00;;;22.40;1.00;;;;;;5041531;28;20131;-86
2023/08/09 09:17:54;;;;;;;1.65;0.30;;;22.20;1.00;;;;;;5040538;28;20468;-85
2023/08/09 09:20:23;;;;;;;1.67;0.75;;;22.10;1.00;;;;;;5040121;28;20044;-84
2023/08/09 09:22:49;;;;;;;0.00;0.00;;;22.20;1.00;;;;;;5039706;28;20052;-84
2023/08/09 09:25:17;;;;;;;0.00;0.00;;;22.70;1.00;;;;;;5038951;28;20052;-85
2023/08/09 09:27:46;;;;;;;0.00;0.00;;;23.50;1.00;;;;;;5040684;28;20608;-84
2023/08/09 09:30:32;;;;;;;0.00;0.00;;;23.50;1.00;;;;;;5020330;28;20049;-86
2023/08/09 09:33:05;;;;;;;0.00;0.00;;;24.60;1.00;;;;;;5040366;28;20053;-85
2023/08/09 09:35:33;;;;;;;0.00;0.00;;;25.00;1.00;;;;;;5041598;28;20061;-86
2023/08/09 09:38:00;;;;;;;0.05;0.05;;;25.50;1.00;;;;;;5041091;28;20427;-84
2023/08/09 09:40:36;;;;;;;0.00;0.00;;;26.20;1.00;;;;;;5042161;28;20044;-84
2023/08/09 09:43:04;;;;;;;0.25;0.10;;;26.50;1.00;;;;;;5044441;28;20053;-84
2023/08/09 09:45:31;;;;;;;0.00;0.00;;;26.40;1.00;;;;;;5045949;28;20048;-85
2023/08/09 09:48:02;;;;;;;0.73;0.52;;;26.00;1.00;;;;;;5046426;28;20081;-85
2023/08/09 09:50:29;;;;;;;0.08;0.00;;;26.40;1.00;;;;;;5047422;28;20055;-85
2023/08/09 09:52:57;;;;;;;0.00;0.00;;;26.60;1.00;;;;;;5047744;28;20049;-85
2023/08/09 09:55:28;;;;;;;0.00;0.00;;;27.30;19.30;;;;;;5049859;28;20041;-85
2023/08/09 09:57:55;;;;;;;0.00;0.00;;;26.90;1.00;;;;;;5050242;28;20385;-84
2023/08/09 10:00:25;;;;;;;0.10;0.08;;;25.60;1.00;;;;;;5051977;28;20049;-84
2023/08/09 10:02:53;;;;;;;0.00;0.00;;;24.80;1.00;;;;;;5053699;28;20053;-84
2023/08/09 10:05:35;;;;;;;0.00;0.00;;;24.80;1.00;;;;;;5059789;28;20056;-84
2023/08/09 10:08:06;;;;;;;0.00;0.00;;;24.50;1.00;;;;;;5057906;28;20063;-85
2023/08/09 10:10:33;;;;;;;0.00;0.00;;;24.20;1.00;;;;;;5061653;28;20123;-85
2023/08/09 10:13:01;;;;;;;3.20;0.20;;;24.10;1.00;;;;;;5066158;28;20045;-85
2023/08/09 10:15:31;;;;;;;0.57;0.32;;;24.20;1.00;;;;;;5066399;28;20083;-84
2023/08/09 10:18:10;;;;;;;0.00;0.00;;;24.40;1.00;;;;;;5064955;28;20036;-85
2023/08/09 10:20:41;;;;;;;0.00;0.00;;;24.20;1.00;;;;;;5068807;28;20060;-85
2023/08/09 10:23:07;;;;;;;0.00;0.00;;;23.80;1.00;;;;;;5065934;28;20060;-85
2023/08/09 10:25:46;;;;;;;0.03;0.03;;;23.30;1.00;;;;;;5066772;28;20033;-85
2023/08/09 10:28:12;;;;;;;0.00;0.00;;;22.60;1.00;;;;;;5064891;28;20040;-86
2023/08/09 10:30:44;;;;;;;0.00;0.00;;;22.10;99.90;;;;;;5054465;28;20407;-86
2023/08/09 10:33:10;;;;;;;0.00;0.00;;;22.10;99.90;;;;;;5053276;28;20049;-87
2023/08/09 10:35:50;;;;;;;0.00;0.00;;;22.30;1.00;;;;;;5051632;28;20106;-86
2023/08/09 10:38:20;;;;;;;0.00;0.00;;;22.10;1.00;;;;;;5050763;28;20151;-87
2023/08/09 10:40:53;;;;;;;0.08;0.08;;;21.80;99.90;;;;;;5048345;28;20411;-86
2023/08/09 10:43:29;;;;;;;0.00;0.00;;;22.00;99.90;;;;;;5031924;28;20128;-86
2023/08/09 10:45:56;;;;;;;0.00;0.00;;;21.90;99.90;;;;;;5049992;28;20056;-85
2023/08/09 10:48:26;;;;;;;0.00;0.00;;;21.80;99.90;;;;;;5049379;28;20124;-86
2023/08/09 10:51:00;;;;;;;0.00;0.00;;;21.70;99.90;;;;;;5050658;28;20060;-86
2023/08/09 10:53:27;;;;;;;0.17;0.05;;;21.50;99.90;;;;;;5032670;28;20049;-86
2023/08/09 10:55:56;;;;;;;0.25;0.13;;;21.80;1.00;;;;;;5030125;28;20846;-85
2023/08/09 10:58:29;;;;;;;0.00;0.00;;;22.50;1.00;;;;;;5029868;28;20124;-86
2023/08/09 11:00:55;;;;;;;0.00;0.00;;;22.80;1.00;;;;;;5029900;28;20091;-86
2023/08/09 11:03:22;;;;;;;0.10;0.00;;;22.90;1.00;;;;;;5029549;28;20052;-86
2023/08/09 11:05:48;;;;;;;0.00;0.00;;;23.00;1.00;;;;;;5028657;28;20049;-86
2023/08/09 11:08:18;;;;;;;0.00;0.00;;;23.10;1.00;;;;;;5040274;28;20094;-85
2023/08/09 11:10:45;;;;;;;0.05;0.03;;;23.10;1.00;;;;;;5047357;28;20047;-86
2023/08/09 11:13:16;;;;;;;0.05;0.05;;;23.20;1.00;;;;;;5046879;28;20048;-86
2023/08/09 11:15:47;;;;;;;0.20;0.15;;;23.00;1.00;;;;;;5047453;28;20049;-86
2023/08/09 11:18:12;;;;;;;0.00;0.00;;;23.10;1.00;;;;;;5046352;28;20102;-86
2023/08/09 11:20:39;;;;;;;0.00;0.00;;;23.30;1.00;;;;;;5048421;28;20068;-86
2023/08/09 11:23:05;;;;;;;0.00;0.00;;;23.30;1.00;;;;;;5048579;28;20048;-87
2023/08/09 11:25:33;;;;;;;0.00;0.00;;;23.30;1.00;;;;;;5046084;28;20044;-86
2023/08/09 11:28:01;;;;;;;4.95;1.40;;;23.50;1.00;;;;;;5046912;28;20141;-86
2023/08/09 11:30:29;;;;;;;0.00;0.00;;;23.70;1.00;;;;;;5047702;28;20455;-86
2023/08/09 11:33:03;;;;;;;0.10;0.10;;;23.80;1.00;;;;;;5047104;28;20503;-87
2023/08/09 11:35:42;;;;;;;0.20;0.10;;;24.10;1.00;;;;;;5047039;28;20129;-86
2023/08/09 11:38:10;;;;;;;0.20;0.15;;;24.00;1.00;;;;;;5044898;28;20105;-86
2023/08/09 11:40:51;;;;;;;0.20;0.20;;;23.80;1.00;;;;;;5046583;28;20091;-85
2023/08/09 11:43:18;;;;;;;0.00;0.00;;;23.70;1.00;;;;;;5045369;28;20367;-85
2023/08/09 11:45:48;;;;;;;0.00;0.00;;;24.30;1.00;;;;;;5046717;28;20368;-85
2023/08/09 11:48:36;;;;;;;0.00;0.00;;;24.60;1.00;;;;;;5047543;28;20105;-85
2023/08/09 11:51:27;;;;;;;0.00;0.00;;;25.00;1.00;;;;;;5042277;28;20449;-85
2023/08/09 11:53:53;;;;;;;0.00;0.00;;;25.00;1.00;;;;;;5033957;28;20084;-86
2023/08/09 11:56:20;;;;;;;0.00;0.00;;;24.80;1.00;;;;;;5041971;28;20534;-85
2023/08/09 11:58:47;;;;;;;0.35;0.30;;;24.20;1.00;;;;;;5040267;28;20460;-86
2023/08/09 12:01:36;;;;;;;0.10;0.10;;;24.70;1.00;;;;;;5042172;28;20109;-86
2023/08/09 12:04:07;;;;;;;0.05;0.05;;;26.20;1.00;;;;;;5033765;28;20064;-85
2023/08/09 12:06:48;;;;;;;0.00;0.00;;;27.00;1.00;;;;;;5047003;28;20052;-85
2023/08/09 12:09:32;;;;;;;0.00;0.00;;;26.70;1.00;;;;;;5038283;28;20052;-85
2023/08/09 12:12:04;;;;;;;0.00;0.00;;;26.00;1.00;;;;;;5043810;28;20087;-85
2023/08/09 12:14:30;;;;;;;0.00;0.00;;;25.80;1.00;;;;;;5046075;28;20488;-85
2023/08/09 12:16:56;;;;;;;0.00;0.00;;;25.80;1.00;;;;;;5046142;28;20060;-85
2023/08/09 12:19:22;;;;;;;0.00;0.00;;;26.80;1.00;;;;;;5045908;28;20052;-85
2023/08/09 12:21:47;;;;;;;0.03;0.03;;;27.80;1.00;;;;;;5042696;28;20053;-86
2023/08/09 12:24:16;;;;;;;1.17;0.35;;;28.70;1.00;;;;;;5046049;28;20411;-86
2023/08/09 12:26:42;;;;;;;0.90;0.30;;;28.80;1.00;;;;;;5045319;28;20526;-87
2023/08/09 12:29:11;;;;;;;0.85;0.40;;;29.00;1.00;;;;;;5046339;28;20060;-86
2023/08/09 12:31:38;;;;;;;1.30;0.85;;;28.60;1.00;;;;;;5046488;28;20083;-86
2023/08/09 12:34:04;;;;;;;0.20;0.20;;;28.10;1.00;;;;;;5045222;28;20560;-86
2023/08/09 12:36:30;;;;;;;0.13;0.03;;;28.70;1.00;;;;;;5045410;28;20052;-86
2023/08/09 12:38:57;;;;;;;0.80;0.35;;;27.70;1.00;;;;;;5046175;28;20088;-88
2023/08/09 12:41:23;;;;;;;0.00;0.00;;;26.90;1.00;;;;;;5047572;28;20060;-89
2023/08/09 12:43:49;;;;;;;1.02;0.00;;;25.40;99.90;;;;;;5049075;28;20045;-88
2023/08/09 12:46:15;;;;;;;0.10;0.10;;;24.60;99.90;;;;;;5048441;28;20052;-88
2023/08/09 12:48:40;;;;;;;0.15;0.15;;;23.80;99.90;;;;;;5049605;28;21229;-86
2023/08/09 12:51:06;;;;;;;0.70;0.32;;;23.20;99.90;;;;;;5049915;28;20046;-88
2023/08/09 12:53:32;;;;;;;0.10;0.10;;;23.00;99.90;;;;;;5051944;28;20387;-89
2023/08/09 12:55:57;;;;;;;0.00;0.00;;;23.00;99.90;;;;;;5051140;28;20056;-89